Time;durP1;ratioP1;P1;durP2;ratioP2;P2;SDS_P1;SDS_P2;PMS_P1;PMS_P2;Temp;Humidity;BMP_temperature;BMP_pressure;BME280_temperature;BME280_humidity;BME280_pressure;Samples;Min_cycle;Max_cycle;Signal;HPM_P1;HPM_P2
2022/05/15 00:02:09;;;;;;;3.50;1.63;;;;;;;11.73;45.55;98106.44;5032470;28;20049;-64
2022/05/15 00:04:36;;;;;;;3.50;1.40;;;;;;;11.77;45.76;98096.97;5032885;28;20053;-64
2022/05/15 00:07:04;;;;;;;4.25;1.42;;;;;;;11.81;45.40;98100.59;5032158;28;20558;-64
2022/05/15 00:09:31;;;;;;;5.68;1.73;;;;;;;11.85;45.99;98106.22;5032444;28;20060;-64
2022/05/15 00:11:58;;;;;;;3.17;1.50;;;;;;;11.86;45.48;98103.06;5030697;28;20416;-68
2022/05/15 00:14:25;;;;;;;6.97;1.60;;;;;;;11.86;45.72;98105.84;5032295;28;20042;-68
2022/05/15 00:16:52;;;;;;;3.88;1.40;;;;;;;11.88;45.72;98102.69;5032513;28;20053;-69
2022/05/15 00:19:19;;;;;;;4.70;1.33;;;;;;;11.89;46.26;98099.53;5035754;28;20102;-68
2022/05/15 00:21:46;;;;;;;9.68;1.88;;;;;;;11.87;45.47;98095.53;5032326;28;20089;-68
2022/05/15 00:24:13;;;;;;;8.18;2.47;;;;;;;11.89;46.04;98093.97;5033108;28;20045;-69
2022/05/15 00:26:40;;;;;;;5.40;1.80;;;;;;;11.86;45.96;98089.13;5036329;28;20057;-68
2022/05/15 00:29:08;;;;;;;4.32;1.50;;;;;;;11.85;46.09;98097.88;5018057;28;20053;-69
2022/05/15 00:31:35;;;;;;;6.50;1.95;;;;;;;11.82;46.16;98099.44;5035986;28;20401;-69
2022/05/15 00:34:02;;;;;;;3.25;1.50;;;;;;;11.87;46.28;98099.09;5036159;28;20046;-69
2022/05/15 00:36:29;;;;;;;4.00;1.73;;;;;;;11.85;45.65;98095.09;5036051;28;20491;-68
2022/05/15 00:38:58;;;;;;;5.47;1.88;;;;;;;11.77;46.21;98094.19;5035902;28;20057;-68
2022/05/15 00:41:26;;;;;;;5.40;1.48;;;;;;;11.70;46.09;98093.28;5035830;28;20584;-69
2022/05/15 00:43:56;;;;;;;6.25;1.50;;;;;;;11.73;46.64;98098.91;5035845;28;20042;-68
2022/05/15 00:46:30;;;;;;;4.28;1.35;;;;;;;11.77;46.25;98093.38;5035761;28;20046;-68
2022/05/15 00:49:01;;;;;;;6.80;1.40;;;;;;;11.72;46.78;98094.50;5036404;28;20073;-69
2022/05/15 00:51:40;;;;;;;4.40;1.48;;;;;;;11.70;46.69;98090.50;5035485;28;20056;-69
2022/05/15 00:54:18;;;;;;;9.27;1.35;;;;;;;11.64;46.47;98094.78;5035595;28;20056;-69
2022/05/15 00:57:10;;;;;;;9.50;1.67;;;;;;;11.56;47.12;98085.47;5035690;28;20049;-68
2022/05/15 00:59:45;;;;;;;5.28;1.50;;;;;;;11.49;47.20;98082.56;5035664;28;20045;-68
2022/05/15 01:02:14;;;;;;;3.67;1.30;;;;;;;11.43;46.98;98077.69;5035470;28;20060;-69
2022/05/15 01:04:43;;;;;;;5.55;1.02;;;;;;;11.41;47.85;98089.22;5036049;28;20049;-68
2022/05/15 01:07:10;;;;;;;3.30;1.15;;;;;;;11.35;47.48;98085.13;5035465;28;20045;-68
2022/05/15 01:09:37;;;;;;;8.65;1.30;;;;;;;11.35;47.96;98084.31;5018809;28;20049;-69
2022/05/15 01:12:05;;;;;;;2.50;1.27;;;;;;;11.35;47.93;98090.69;5018041;28;20057;-68
2022/05/15 01:14:32;;;;;;;4.70;1.33;;;;;;;11.32;47.98;98087.84;5035400;28;20045;-69
2022/05/15 01:16:59;;;;;;;3.42;1.10;;;;;;;11.29;47.90;98086.63;5034121;28;20493;-67
2022/05/15 01:19:31;;;;;;;8.73;1.45;;;;;;;11.32;48.03;98083.09;5040942;28;20052;-69
2022/05/15 01:22:00;;;;;;;5.65;1.50;;;;;;;11.30;48.84;98079.88;5054923;28;20136;-69
2022/05/15 01:24:28;;;;;;;3.78;1.42;;;;;;;11.30;47.78;98076.28;5055312;28;20095;-69
2022/05/15 01:26:57;;;;;;;4.38;1.48;;;;;;;11.29;48.30;98081.06;5054703;28;20099;-69
2022/05/15 01:29:30;;;;;;;5.85;1.60;;;;;;;11.26;48.67;98081.00;5054990;28;20067;-69
2022/05/15 01:31:58;;;;;;;3.35;1.40;;;;;;;11.22;48.82;98083.69;5054952;28;20072;-68
2022/05/15 01:34:25;;;;;;;3.55;1.50;;;;;;;11.21;48.43;98078.50;5054883;28;20044;-69
2022/05/15 01:36:52;;;;;;;2.95;1.25;;;;;;;11.19;48.87;98076.09;5053794;28;20049;-69
2022/05/15 01:39:19;;;;;;;4.95;1.13;;;;;;;11.22;48.85;98085.69;5054833;28;20166;-69
2022/05/15 01:41:46;;;;;;;1.92;0.93;;;;;;;11.21;48.40;98079.31;5054712;28;20389;-69
2022/05/15 01:44:13;;;;;;;5.95;1.40;;;;;;;11.22;48.74;98085.69;5054692;28;20071;-69
2022/05/15 01:46:40;;;;;;;4.18;1.60;;;;;;;11.20;49.43;98085.25;5054710;28;20048;-69
2022/05/15 01:49:07;;;;;;;7.47;1.58;;;;;;;11.24;49.22;98086.13;5054024;28;20064;-69
2022/05/15 01:51:37;;;;;;;6.85;1.40;;;;;;;11.31;48.64;98089.81;5034617;28;20057;-69
2022/05/15 01:54:04;;;;;;;3.05;1.00;;;;;;;11.34;48.64;98088.28;5034748;28;20053;-70
2022/05/15 01:56:31;;;;;;;3.25;1.30;;;;;;;11.36;48.75;98086.72;5034493;28;20088;-70
2022/05/15 01:58:58;;;;;;;2.65;1.27;;;;;;;11.36;48.60;98085.91;5034509;28;20045;-69
2022/05/15 02:01:25;;;;;;;5.72;1.55;;;;;;;11.39;48.74;98080.41;5017312;28;20089;-66
2022/05/15 02:03:52;;;;;;;3.13;1.05;;;;;;;11.41;49.10;98080.03;5034160;28;20057;-65
2022/05/15 02:06:19;;;;;;;3.78;1.23;;;;;;;11.46;48.55;98080.53;5014318;28;20144;-65
2022/05/15 02:08:48;;;;;;;6.15;1.50;;;;;;;11.53;48.50;98088.19;5014295;28;20062;-65
2022/05/15 02:11:15;;;;;;;3.28;1.25;;;;;;;11.55;48.53;98085.84;5014097;28;20141;-65
2022/05/15 02:13:42;;;;;;;3.63;1.60;;;;;;;11.52;48.35;98079.03;5014555;28;20450;-65
2022/05/15 02:16:09;;;;;;;6.40;1.30;;;;;;;11.56;48.84;98082.69;5013985;28;20058;-65
2022/05/15 02:18:37;;;;;;;4.30;1.30;;;;;;;11.58;48.79;98087.88;5014391;28;20108;-65
2022/05/15 02:21:04;;;;;;;6.93;1.63;;;;;;;11.54;48.35;98082.25;5015076;28;20080;-66
2022/05/15 02:23:31;;;;;;;4.88;1.23;;;;;;;11.52;48.76;98072.66;5034063;28;20045;-65
2022/05/15 02:25:58;;;;;;;6.82;1.60;;;;;;;11.53;48.68;98075.09;5033995;28;20049;-65
2022/05/15 02:28:26;;;;;;;3.55;1.60;;;;;;;11.55;48.76;98078.31;5033633;28;20508;-65
2022/05/15 02:30:53;;;;;;;3.85;1.13;;;;;;;11.61;48.27;98078.78;5034200;28;20497;-66
2022/05/15 02:33:20;;;;;;;4.70;1.33;;;;;;;11.61;48.43;98079.59;5033479;28;20099;-65
2022/05/15 02:35:47;;;;;;;6.05;1.60;;;;;;;11.67;48.70;98080.09;5034069;28;20060;-65
2022/05/15 02:38:14;;;;;;;2.90;1.48;;;;;;;11.68;48.78;98090.06;5033504;28;20061;-66
2022/05/15 02:40:41;;;;;;;3.28;1.63;;;;;;;11.69;48.48;98088.88;5034332;28;20103;-65
2022/05/15 02:43:08;;;;;;;6.15;1.88;;;;;;;11.66;48.81;98089.63;5033545;28;20136;-65
2022/05/15 02:45:35;;;;;;;3.95;1.48;;;;;;;11.64;48.39;98087.22;5033576;28;20500;-65
2022/05/15 02:48:03;;;;;;;3.58;1.30;;;;;;;11.66;48.52;98081.28;5033350;28;20050;-65
2022/05/15 02:53:15;;;;;;;3.72;1.35;;;;;;;11.60;48.43;98080.75;5013325;28;20112;-66
2022/05/15 02:55:42;;;;;;;3.75;1.23;;;;;;;11.62;48.97;98084.00;5012545;28;20057;-65
2022/05/15 02:58:09;;;;;;;4.28;1.38;;;;;;;11.75;48.66;98077.03;5013489;28;20049;-65
2022/05/15 03:00:36;;;;;;;3.60;1.17;;;;;;;11.85;48.34;98081.97;5013540;28;20501;-65
2022/05/15 03:03:03;;;;;;;3.97;1.65;;;;;;;11.94;48.11;98079.72;4979676;28;20107;-66
2022/05/15 03:05:30;;;;;;;8.38;1.65;;;;;;;11.93;48.23;98080.88;5012201;28;20156;-66
2022/05/15 03:07:59;;;;;;;2.60;1.17;;;;;;;11.92;48.50;98081.25;5013422;28;20057;-69
2022/05/15 03:10:25;;;;;;;9.73;2.38;;;;;;;11.93;48.39;98086.44;5013523;28;20140;-69
2022/05/15 03:12:52;;;;;;;4.55;1.48;;;;;;;11.94;48.10;98096.44;5013330;28;20064;-69
2022/05/15 03:15:20;;;;;;;6.07;1.45;;;;;;;11.92;48.38;98093.22;5013321;28;20041;-70
2022/05/15 03:17:47;;;;;;;5.85;1.20;;;;;;;11.86;48.21;98086.34;5013507;28;20397;-69
2022/05/15 03:20:17;;;;;;;3.80;1.20;;;;;;;11.91;48.56;98091.59;5013251;28;20417;-69
2022/05/15 03:22:45;;;;;;;2.35;1.20;;;;;;;11.87;48.43;98084.38;5042182;28;20148;-69
2022/05/15 03:25:12;;;;;;;9.15;2.25;;;;;;;11.82;48.90;98091.09;5053265;28;20149;-69
2022/05/15 03:27:39;;;;;;;3.20;0.93;;;;;;;11.81;48.99;98089.44;5052860;28;20052;-70
2022/05/15 03:30:07;;;;;;;4.90;1.45;;;;;;;11.86;48.78;98094.72;5052996;28;20143;-69
2022/05/15 03:32:34;;;;;;;2.78;1.05;;;;;;;11.96;48.69;98096.84;5052709;28;20049;-70
2022/05/15 03:35:01;;;;;;;4.15;1.30;;;;;;;12.02;48.43;98092.53;5052713;28;20127;-69
2022/05/15 03:37:28;;;;;;;4.68;1.10;;;;;;;12.09;48.29;98092.66;5052652;28;20504;-69
2022/05/15 03:39:55;;;;;;;2.97;1.10;;;;;;;12.13;48.23;98092.69;5039406;28;20053;-69
2022/05/15 03:42:26;;;;;;;3.05;1.45;;;;;;;12.23;48.01;98092.81;5032907;28;20136;-69
2022/05/15 03:44:53;;;;;;;2.92;1.25;;;;;;;12.35;48.04;98094.59;5032439;28;20049;-68
2022/05/15 03:47:21;;;;;;;3.60;1.27;;;;;;;12.43;47.64;98085.91;5032642;28;20057;-70
2022/05/15 03:49:48;;;;;;;4.90;1.40;;;;;;;12.52;47.99;98088.41;5032684;28;20500;-66
2022/05/15 03:52:16;;;;;;;2.47;1.05;;;;;;;12.61;47.64;98092.50;5032571;28;20049;-65
2022/05/15 03:54:46;;;;;;;2.47;1.33;;;;;;;12.80;47.15;98083.16;5032311;28;20049;-66
2022/05/15 03:57:14;;;;;;;2.97;1.58;;;;;;;13.16;46.56;98090.72;5032662;28;20080;-67
2022/05/15 03:59:41;;;;;;;3.15;1.25;;;;;;;13.40;46.10;98083.75;5034539;28;20053;-65
2022/05/15 04:02:10;;;;;;;1.58;0.93;;;;;;;13.67;45.65;98080.38;5036529;28;20100;-65
2022/05/15 04:04:37;;;;;;;2.13;0.90;;;;;;;13.91;45.07;98076.13;5036329;28;20046;-66
2022/05/15 04:07:10;;;;;;;2.17;1.15;;;;;;;14.05;44.84;98082.63;5036345;28;20045;-66
2022/05/15 04:09:40;;;;;;;6.20;1.30;;;;;;;14.19;44.56;98079.94;5019031;28;20424;-65
2022/05/15 04:12:09;;;;;;;9.50;1.20;;;;;;;14.38;44.19;98085.22;5036415;28;20049;-66
2022/05/15 04:14:36;;;;;;;5.05;1.15;;;;;;;14.63;44.07;98080.53;5036451;28;20055;-66
2022/05/15 04:17:04;;;;;;;2.35;1.10;;;;;;;14.90;43.53;98083.81;5036329;28;20049;-66
2022/05/15 04:19:33;;;;;;;5.30;1.40;;;;;;;14.95;43.52;98083.41;5036485;28;20528;-65
2022/05/15 04:22:02;;;;;;;4.25;1.50;;;;;;;14.82;43.37;98085.00;5036579;28;20050;-64
2022/05/15 04:24:29;;;;;;;3.28;1.25;;;;;;;14.91;43.82;98087.41;5052068;28;20555;-65
2022/05/15 04:26:56;;;;;;;5.53;1.98;;;;;;;15.21;42.84;98088.66;5036422;28;20057;-64
2022/05/15 04:29:24;;;;;;;3.80;1.42;;;;;;;15.51;42.67;98083.50;5036065;28;20096;-67
2022/05/15 04:31:56;;;;;;;9.27;1.40;;;;;;;15.58;42.39;98080.72;5035974;28;20053;-65
2022/05/15 04:34:28;;;;;;;5.75;1.30;;;;;;;15.68;42.48;98085.50;5036019;28;20551;-65
2022/05/15 04:36:55;;;;;;;7.60;1.48;;;;;;;15.86;41.89;98079.88;5035913;28;20041;-65
2022/05/15 04:39:23;;;;;;;3.30;1.50;;;;;;;15.84;41.53;98085.88;5035852;28;20115;-65
2022/05/15 04:41:50;;;;;;;5.47;1.60;;;;;;;15.82;41.67;98082.72;5036108;28;20518;-66
2022/05/15 04:44:17;;;;;;;5.30;1.17;;;;;;;16.02;41.31;98075.44;5035918;28;20100;-65
2022/05/15 04:46:44;;;;;;;4.22;1.55;;;;;;;16.16;40.98;98089.44;5035823;28;20160;-65
2022/05/15 04:49:11;;;;;;;2.60;1.42;;;;;;;16.34;40.58;98080.97;5035484;28;20080;-66
2022/05/15 04:51:37;;;;;;;3.38;1.20;;;;;;;16.43;40.25;98081.34;5035841;28;20059;-66
2022/05/15 04:54:04;;;;;;;3.53;1.33;;;;;;;16.57;39.76;98077.69;5035664;28;20057;-65
2022/05/15 04:56:31;;;;;;;2.20;1.20;;;;;;;16.62;39.91;98080.91;5035689;28;20053;-65
2022/05/15 04:58:58;;;;;;;5.75;2.05;;;;;;;16.66;39.80;98078.88;5035704;28;20046;-65
2022/05/15 05:01:27;;;;;;;2.58;1.50;;;;;;;16.79;39.61;98082.03;5035574;28;20135;-65
2022/05/15 05:03:56;;;;;;;5.63;1.48;;;;;;;16.90;39.51;98077.16;5035527;28;20056;-65
2022/05/15 05:06:24;;;;;;;2.35;1.17;;;;;;;16.98;39.29;98073.09;5035342;28;20097;-65
2022/05/15 05:08:53;;;;;;;4.47;1.45;;;;;;;17.07;39.11;98077.06;5035129;28;20057;-65
2022/05/15 05:11:20;;;;;;;4.07;1.48;;;;;;;17.08;39.05;98072.25;5033744;28;20137;-65
2022/05/15 05:13:48;;;;;;;3.13;1.38;;;;;;;17.16;38.90;98073.78;5035317;28;20087;-65
2022/05/15 05:16:15;;;;;;;8.63;1.48;;;;;;;17.28;38.75;98065.66;5048136;28;20043;-65
2022/05/15 05:18:42;;;;;;;2.88;1.25;;;;;;;17.22;38.66;98066.50;5031908;28;20050;-65
2022/05/15 05:21:09;;;;;;;4.10;1.20;;;;;;;17.05;39.30;98082.28;4997508;28;20046;-65
2022/05/15 05:23:36;;;;;;;3.03;1.33;;;;;;;17.18;39.20;98068.56;5032607;28;20055;-65
2022/05/15 05:26:03;;;;;;;5.78;1.35;;;;;;;17.47;38.94;98072.78;5055128;28;20061;-66
2022/05/15 05:28:32;;;;;;;4.97;1.40;;;;;;;17.71;38.21;98072.56;5055104;28;20041;-64
2022/05/15 05:30:59;;;;;;;4.43;1.52;;;;;;;18.00;37.58;98073.13;5054797;28;20114;-64
2022/05/15 05:33:26;;;;;;;2.83;1.15;;;;;;;18.07;37.57;98075.84;5054888;28;20057;-66
2022/05/15 05:35:54;;;;;;;5.57;1.60;;;;;;;18.11;37.29;98068.16;5054779;28;20396;-65
2022/05/15 05:38:21;;;;;;;3.60;1.38;;;;;;;18.10;37.47;98077.84;5055112;28;20060;-64
2022/05/15 05:40:48;;;;;;;3.45;1.25;;;;;;;18.24;37.59;98072.84;5054815;28;20045;-65
2022/05/15 05:43:15;;;;;;;5.60;1.20;;;;;;;18.40;37.18;98063.06;5054742;28;20087;-64
2022/05/15 05:45:43;;;;;;;6.93;1.42;;;;;;;18.48;37.26;98073.03;5054765;28;20140;-65
2022/05/15 05:48:10;;;;;;;3.13;1.25;;;;;;;18.66;36.91;98065.97;5045057;28;20100;-66
2022/05/15 05:50:37;;;;;;;3.35;1.02;;;;;;;18.57;36.38;98078.94;5024359;28;20054;-64
2022/05/15 05:53:05;;;;;;;5.50;2.88;;;;;;;18.63;35.93;98078.06;5014683;28;20096;-65
2022/05/15 05:55:32;;;;;;;7.32;1.67;;;;;;;18.59;35.89;98073.69;5014457;28;20420;-64
2022/05/15 05:57:59;;;;;;;5.15;1.40;;;;;;;18.81;35.41;98077.81;5014339;28;20045;-65
2022/05/15 06:00:37;;;;;;;3.28;1.30;;;;;;;18.94;35.00;98078.84;5014734;28;20049;-66
2022/05/15 06:05:52;;;;;;;3.03;1.17;;;;;;;19.18;34.32;98069.25;5014857;28;20050;-65
2022/05/15 06:08:19;;;;;;;2.47;1.23;;;;;;;19.03;34.71;98077.13;5014302;28;20156;-65
2022/05/15 06:10:47;;;;;;;4.88;1.10;;;;;;;19.00;34.69;98074.34;5014467;28;20120;-65
2022/05/15 06:13:14;;;;;;;4.00;1.30;;;;;;;19.03;34.73;98077.13;5014409;28;20472;-64
2022/05/15 06:15:41;;;;;;;8.55;1.45;;;;;;;19.18;34.59;98077.69;5014038;28;20049;-64
2022/05/15 06:18:08;;;;;;;5.10;1.33;;;;;;;19.42;34.02;98074.53;5014257;28;20140;-63
2022/05/15 06:20:35;;;;;;;3.35;1.40;;;;;;;19.58;33.83;98071.88;5024993;28;20107;-63
2022/05/15 06:23:03;;;;;;;5.38;1.70;;;;;;;19.79;33.71;98080.00;5037107;28;20052;-64
2022/05/15 06:25:30;;;;;;;4.13;1.30;;;;;;;19.97;33.20;98065.56;5053859;28;20127;-64
2022/05/15 06:27:58;;;;;;;5.50;1.60;;;;;;;20.15;33.09;98080.19;5053560;28;20091;-64
2022/05/15 06:30:24;;;;;;;2.90;1.30;;;;;;;20.41;32.37;98072.84;5053824;28;20131;-64
2022/05/15 06:32:52;;;;;;;4.00;1.30;;;;;;;20.50;32.00;98075.88;5053600;28;20056;-64
2022/05/15 06:35:19;;;;;;;3.60;1.40;;;;;;;20.62;31.43;98083.72;5053737;28;20130;-68
2022/05/15 06:37:46;;;;;;;2.83;1.45;;;;;;;20.90;31.44;98083.16;5053440;28;20048;-64
2022/05/15 06:40:15;;;;;;;6.68;1.35;;;;;;;21.32;30.77;98076.56;5018941;28;20470;-64
2022/05/15 06:42:42;;;;;;;;;;;;;;;21.56;30.56;98078.00;4997256;28;20052;-65
2022/05/15 06:45:11;;;;;;;8.73;1.15;;;;;;;21.95;29.87;98075.03;5013886;28;19933;-65
2022/05/15 06:47:38;;;;;;;3.33;1.23;;;;;;;23.71;27.51;98069.91;5013581;28;20156;-69
2022/05/15 06:50:07;;;;;;;2.38;1.27;;;;;;;28.15;22.67;98065.97;5024508;28;20448;-69
2022/05/15 06:52:36;;;;;;;3.60;1.00;;;;;;;29.46;20.49;98069.94;5033415;28;20140;-70
2022/05/15 06:55:05;;;;;;;9.35;1.20;;;;;;;28.89;21.12;98068.59;5032896;28;20053;-69
2022/05/15 06:57:33;;;;;;;;;;;;;;;29.40;21.08;98066.19;5033698;28;20060;-69
2022/05/15 07:00:08;;;;;;;2.28;1.15;;;;;;;30.93;19.22;98054.66;5033197;28;20346;-70
2022/05/15 07:02:35;;;;;;;4.40;1.38;;;;;;;34.51;16.07;98057.56;5033181;28;20419;-69
2022/05/15 07:05:04;;;;;;;3.75;1.55;;;;;;;37.09;13.88;98053.13;5033201;28;20041;-69
2022/05/15 07:07:31;;;;;;;4.18;1.20;;;;;;;38.89;12.03;98053.44;5032769;28;20107;-69
2022/05/15 07:09:58;;;;;;;6.13;1.40;;;;;;;40.15;11.23;98051.03;5033044;28;20050;-70
2022/05/15 07:12:25;;;;;;;1.65;0.82;;;;;;;38.88;11.75;98043.16;5033059;28;20566;-69
2022/05/15 07:14:52;;;;;;;2.53;1.23;;;;;;;34.75;13.65;98051.97;5033307;28;20556;-68
2022/05/15 07:17:19;;;;;;;1.60;0.98;;;;;;;31.40;15.72;98050.47;5033027;28;20132;-69
2022/05/15 07:19:46;;;;;;;3.17;1.30;;;;;;;34.82;13.65;98045.63;5024731;28;20054;-69
2022/05/15 07:22:14;;;;;;;3.70;1.20;;;;;;;38.30;11.48;98039.56;4993281;28;20065;-69
2022/05/15 07:24:41;;;;;;;2.28;1.40;;;;;;;40.80;9.59;98045.53;5003311;28;20045;-70
2022/05/15 07:27:09;;;;;;;2.55;1.70;;;;;;;41.78;8.81;98040.09;5032264;28;20053;-69
2022/05/15 07:29:36;;;;;;;2.85;0.98;;;;;;;42.30;8.59;98033.53;5032401;28;20049;-68
2022/05/15 07:32:05;;;;;;;2.33;1.05;;;;;;;42.95;8.52;98038.31;5032541;28;20447;-69
2022/05/15 07:34:33;;;;;;;6.05;1.40;;;;;;;43.21;7.99;98034.13;5031986;28;20465;-69
2022/05/15 07:37:00;;;;;;;3.58;1.35;;;;;;;43.60;7.71;98029.69;5032460;28;20411;-70
2022/05/15 07:39:27;;;;;;;2.03;1.02;;;;;;;44.98;7.10;98033.19;5032640;28;20060;-70
2022/05/15 07:41:54;;;;;;;3.00;1.30;;;;;;;45.90;6.56;98028.47;5015220;28;20053;-69
2022/05/15 07:44:21;;;;;;;2.63;1.30;;;;;;;46.54;6.38;98027.06;5032810;28;20054;-70
2022/05/15 07:46:48;;;;;;;1.63;0.90;;;;;;;45.59;6.32;98025.22;5032551;28;20147;-69
2022/05/15 07:49:15;;;;;;;2.63;1.00;;;;;;;45.46;6.25;98019.69;5032584;28;20057;-70
2022/05/15 07:51:45;;;;;;;2.28;1.45;;;;;;;45.07;6.71;98022.97;5032571;28;20639;-70
2022/05/15 07:54:18;;;;;;;3.38;2.00;;;;;;;46.49;5.55;98025.19;5032817;28;20076;-70
2022/05/15 07:56:45;;;;;;;2.38;1.20;;;;;;;47.07;5.27;98023.88;5032434;28;20505;-69
2022/05/15 07:59:12;;;;;;;4.50;1.15;;;;;;;47.55;4.57;98015.78;5032491;28;20148;-70
2022/05/15 08:01:40;;;;;;;3.13;1.25;;;;;;;48.50;4.36;98018.41;5032449;28;20451;-68
2022/05/15 08:04:08;;;;;;;3.92;1.08;;;;;;;48.90;4.50;98015.38;5032413;28;20076;-69
2022/05/15 08:09:21;;;;;;;3.10;1.20;;;;;;;49.38;4.28;98012.81;5041133;28;20050;-69
2022/05/15 08:11:48;;;;;;;;;;;;;;;49.06;4.98;98016.50;5013271;28;20386;-69
2022/05/15 08:14:16;;;;;;;2.10;1.00;;;;;;;47.52;5.51;98008.19;5015750;28;20016;-74
2022/05/15 08:16:43;;;;;;;2.10;1.30;;;;;;;42.53;7.22;98010.13;5032207;28;20132;-74
2022/05/15 08:24:42;;;;;;;2.10;1.15;;;;;;;39.54;8.34;98020.50;5022385;28;20049;-75
2022/05/15 08:27:10;;;;;;;3.20;1.20;;;;;;;42.68;7.06;98005.00;5052118;28;20053;-74
2022/05/15 08:29:38;;;;;;;3.72;1.10;;;;;;;44.87;6.15;98009.47;5052312;28;20049;-75
2022/05/15 08:32:07;;;;;;;4.47;1.10;;;;;;;46.62;5.08;98010.03;5051994;28;20059;-73
2022/05/15 08:34:34;;;;;;;3.08;1.40;;;;;;;47.75;4.58;98008.47;5052065;28;20134;-74
2022/05/15 08:37:02;;;;;;;2.60;1.20;;;;;;;48.45;4.84;98004.75;5052110;28;20049;-75
2022/05/15 08:39:29;;;;;;;1.88;1.30;;;;;;;48.30;4.90;98008.09;5052096;28;20135;-73
2022/05/15 08:42:06;;;;;;;7.18;1.70;;;;;;;49.28;4.25;98009.13;5051916;28;20061;-75
2022/05/15 08:44:43;;;;;;;2.65;1.45;;;;;;;49.92;3.92;97997.13;5051741;28;20049;-75
2022/05/15 08:47:22;;;;;;;3.05;1.30;;;;;;;47.76;4.55;98007.06;5055673;28;20075;-76
2022/05/15 08:50:02;;;;;;;2.85;1.42;;;;;;;44.57;5.74;98001.72;5055767;28;20127;-74
2022/05/15 08:53:14;;;;;;;1.63;0.90;;;;;;;38.64;8.83;98001.91;5055601;28;20504;-76
2022/05/15 08:55:50;;;;;;;1.58;0.80;;;;;;;34.25;11.20;98008.03;5010637;28;20111;-74
2022/05/15 08:58:36;;;;;;;2.35;1.00;;;;;;;30.32;13.93;98006.38;4995577;28;20100;-75
2022/05/15 09:01:08;;;;;;;3.42;1.10;;;;;;;27.98;16.38;98016.22;4994022;28;20465;-74
2022/05/15 09:03:38;;;;;;;5.75;1.40;;;;;;;26.37;19.03;98025.47;4994186;28;20149;-75
2022/05/15 09:06:07;;;;;;;8.52;1.17;;;;;;;24.83;22.62;98037.50;4994054;28;20047;-74
2022/05/15 09:09:04;;;;;;;6.13;1.33;;;;;;;22.30;28.05;98045.78;4993965;28;20076;-75
2022/05/15 09:11:53;;;;;;;3.72;1.35;;;;;;;20.59;31.03;98053.50;4993753;28;20137;-76
2022/05/15 09:14:50;;;;;;;4.88;1.10;;;;;;;19.85;32.56;98058.53;4994430;28;20153;-74
2022/05/15 09:17:24;;;;;;;5.75;1.40;;;;;;;19.28;34.25;98062.69;4994175;28;20065;-74
2022/05/15 09:19:56;;;;;;;5.20;1.20;;;;;;;19.13;34.32;98059.25;4993845;28;20054;-74
2022/05/15 09:22:30;;;;;;;4.28;1.00;;;;;;;18.80;35.98;98060.13;4994097;28;20097;-72
2022/05/15 09:24:57;;;;;;;2.75;0.90;;;;;;;20.19;33.92;98049.06;5000561;28;20054;-75
2022/05/15 09:27:27;;;;;;;2.50;0.90;;;;;;;23.32;30.10;98054.91;5051196;28;20071;-74
2022/05/15 09:29:59;;;;;;;2.28;0.77;;;;;;;25.44;26.77;98043.28;5055130;28;20446;-73
2022/05/15 09:32:29;;;;;;;9.07;1.20;;;;;;;25.56;26.70;98045.22;5054924;28;20056;-73
2022/05/15 09:35:00;;;;;;;;;;;;;;;24.16;28.29;98047.69;5056141;28;20155;-73
2022/05/15 09:43:30;;;;;;;6.25;1.30;;;;;;;21.97;31.63;98043.44;5054726;28;20059;-73
2022/05/15 09:43:35;;;;;;;3.70;1.25;;;;;;;21.35;32.39;98044.56;5054277;28;20049;-74
2022/05/15 09:46:23;;;;;;;4.85;1.25;;;;;;;21.28;32.73;98037.03;5036899;28;20052;-73
2022/05/15 09:48:50;;;;;;;13.63;4.10;;;;;;;21.14;33.05;98057.16;5029862;28;20057;-74
2022/05/15 09:51:32;;;;;;;3.22;1.13;;;;;;;21.07;32.94;98051.66;5014655;28;20077;-74
2022/05/15 09:53:59;;;;;;;2.85;1.02;;;;;;;20.97;32.43;98051.91;5014511;28;20531;-74
2022/05/15 09:56:33;;;;;;;6.32;1.13;;;;;;;21.05;32.34;98040.00;4996598;28;20136;-74
2022/05/15 09:59:08;;;;;;;5.03;0.95;;;;;;;20.58;32.42;98040.63;5014255;28;20069;-75
2022/05/15 10:01:37;;;;;;;2.28;1.10;;;;;;;20.10;33.26;98045.97;5014590;28;20136;-74
2022/05/15 10:04:07;;;;;;;2.00;1.20;;;;;;;19.90;33.29;98034.66;5014702;28;20053;-74
2022/05/15 10:06:48;;;;;;;2.33;0.77;;;;;;;19.79;33.70;98026.38;5014455;28;20054;-74
2022/05/15 10:09:35;;;;;;;1.75;0.80;;;;;;;19.99;33.77;98041.31;5014065;28;20057;-73
2022/05/15 10:12:06;;;;;;;4.55;0.77;;;;;;;20.01;33.11;98031.63;5014214;28;20060;-74
2022/05/15 10:14:40;;;;;;;1.92;0.80;;;;;;;19.87;32.50;98027.81;5014553;28;20531;-73
2022/05/15 10:17:09;;;;;;;3.75;1.20;;;;;;;19.69;31.84;98027.34;5014037;28;20100;-76
2022/05/15 10:20:02;;;;;;;3.73;1.00;;;;;;;19.64;32.01;98022.22;4996524;28;20073;-74
2022/05/15 10:22:39;;;;;;;1.98;0.80;;;;;;;19.48;33.32;98024.88;5014390;28;20289;-75
2022/05/15 10:25:49;;;;;;;2.05;0.82;;;;;;;19.36;32.61;98031.13;5014314;28;20064;-74
2022/05/15 10:28:25;;;;;;;3.25;0.70;;;;;;;19.26;31.92;98026.44;5013808;28;20104;-66
2022/05/15 10:31:07;;;;;;;2.00;0.82;;;;;;;19.14;32.41;98024.22;5014099;28;20133;-65
2022/05/15 10:33:38;;;;;;;2.88;0.80;;;;;;;19.04;32.52;98025.16;5013768;28;20100;-66
2022/05/15 10:36:25;;;;;;;1.77;1.10;;;;;;;19.15;32.61;98028.63;5013656;28;20535;-65
2022/05/15 10:38:52;;;;;;;3.58;0.90;;;;;;;19.38;31.99;98030.69;5032287;28;20071;-65
2022/05/15 10:41:37;;;;;;;3.08;0.98;;;;;;;19.39;31.93;98030.28;5033369;28;20205;-65
2022/05/15 10:44:23;;;;;;;3.13;1.10;;;;;;;19.35;32.44;98035.19;5033638;28;20554;-66
2022/05/15 10:46:56;;;;;;;3.00;0.80;;;;;;;19.08;32.58;98031.56;5033441;28;20045;-66
2022/05/15 10:49:42;;;;;;;2.65;1.20;;;;;;;19.33;32.70;98020.72;5033655;28;20057;-66
2022/05/15 10:52:27;;;;;;;4.00;1.40;;;;;;;19.17;31.63;98028.19;5033444;28;20148;-66
2022/05/15 10:58:10;;;;;;;4.20;1.23;;;;;;;19.11;31.85;98030.69;5033523;28;20096;-66
2022/05/15 11:00:58;;;;;;;4.53;1.27;;;;;;;19.10;32.10;98023.44;5033338;28;20077;-66
2022/05/15 11:03:59;;;;;;;6.03;1.20;;;;;;;18.86;32.46;98035.88;5033077;28;20516;-66
2022/05/15 11:06:38;;;;;;;2.58;0.93;;;;;;;18.90;32.58;98047.91;5000898;28;20493;-66
2022/05/15 11:09:23;;;;;;;6.53;1.10;;;;;;;18.86;32.69;98035.88;5013153;28;20529;-67
2022/05/15 11:12:09;;;;;;;2.40;0.90;;;;;;;18.98;33.07;98034.53;5013413;28;20056;-66
2022/05/15 11:14:51;;;;;;;3.47;0.88;;;;;;;19.01;33.26;98034.47;5013491;28;20132;-66
2022/05/15 11:17:44;;;;;;;2.78;0.90;;;;;;;18.75;32.52;98040.88;5013269;28;20054;-65
2022/05/15 11:20:40;;;;;;;4.57;0.90;;;;;;;18.46;32.80;98045.28;4979103;28;20069;-66
2022/05/15 11:23:25;;;;;;;3.05;1.08;;;;;;;18.57;32.49;98034.69;5012875;28;20050;-66
2022/05/15 11:26:01;;;;;;;1.80;0.90;;;;;;;19.00;31.77;98027.22;5021872;28;20042;-65
2022/05/15 11:28:31;;;;;;;2.47;0.85;;;;;;;19.15;31.52;98037.06;5052501;28;20048;-66
2022/05/15 11:31:09;;;;;;;4.10;1.05;;;;;;;19.35;31.19;98035.19;5052896;28;20087;-65
2022/05/15 11:33:55;;;;;;;1.45;0.95;;;;;;;19.43;31.31;98033.06;5052723;28;20053;-66
2022/05/15 11:36:22;;;;;;;13.52;4.25;;;;;;;19.39;31.41;98024.63;5052477;28;20041;-66
2022/05/15 11:38:55;;;;;;;2.42;1.00;;;;;;;19.24;31.69;98023.25;5052840;28;20044;-66
2022/05/15 11:42:08;;;;;;;3.47;0.95;;;;;;;19.27;31.85;98030.88;5035027;28;20059;-65
2022/05/15 11:44:38;;;;;;;1.67;0.90;;;;;;;19.42;31.78;98023.00;5043057;28;20088;-66
2022/05/15 11:47:14;;;;;;;6.72;0.90;;;;;;;19.42;31.07;98018.13;5052575;28;20472;-66
2022/05/15 11:49:59;;;;;;;2.25;1.08;;;;;;;19.35;31.46;98017.47;5052598;28;20467;-66
2022/05/15 11:52:54;;;;;;;2.30;1.05;;;;;;;19.10;31.53;98023.44;5052391;28;20049;-66
2022/05/15 11:55:40;;;;;;;2.60;0.80;;;;;;;19.33;31.09;98015.06;5033738;28;20148;-66
2022/05/15 11:58:36;;;;;;;3.72;0.85;;;;;;;19.56;30.62;98012.28;5033068;28;20049;-66
2022/05/15 12:01:05;;;;;;;5.32;1.02;;;;;;;19.48;30.95;98018.47;5032484;28;20080;-66
2022/05/15 12:03:38;;;;;;;2.80;1.25;;;;;;;19.33;31.26;98015.06;5032168;28;20472;-66
2022/05/15 12:06:18;;;;;;;2.30;1.08;;;;;;;19.22;31.63;98013.63;5027029;28;20042;-66
2022/05/15 12:08:52;;;;;;;24.63;6.50;;;;;;;19.02;31.51;98010.72;5032066;28;20057;-66
2022/05/15 12:11:18;;;;;;;5.72;1.67;;;;;;;18.93;31.60;98018.88;5032448;28;20049;-66
2022/05/15 12:13:46;;;;;;;2.38;1.00;;;;;;;18.76;31.39;98017.13;5032607;28;20148;-66